Time;durP1;ratioP1;P1;durP2;ratioP2;P2;SDS_P1;SDS_P2;PMS_P1;PMS_P2;Temp;Humidity;BMP_temperature;BMP_pressure;BME280_temperature;BME280_humidity;BME280_pressure;Samples;Min_cycle;Max_cycle;Signal;HPM_P1;HPM_P2
2021/01/26 00:01:15;;;;;;;9.00;1.98;;;;;;;4.76;62.23;99522.56;5016495;28;20053;-75
2021/01/26 00:03:44;;;;;;;5.97;1.70;;;;;;;4.93;61.67;99517.63;5007437;28;20151;-76
2021/01/26 00:06:11;;;;;;;7.43;1.52;;;;;;;4.67;62.84;99518.16;5020152;28;20053;-75
2021/01/26 00:08:38;;;;;;;3.50;1.40;;;;;;;4.85;62.36;99514.91;5016561;28;20045;-76
2021/01/26 00:11:05;;;;;;;5.70;1.30;;;;;;;4.81;62.39;99508.84;5018739;28;20049;-76
2021/01/26 00:13:33;;;;;;;12.13;1.13;;;;;;;5.38;60.96;99507.75;5012928;28;20052;-76
2021/01/26 00:16:00;;;;;;;9.07;1.75;;;;;;;5.02;61.95;99508.25;5020604;28;20048;-75
2021/01/26 00:18:27;;;;;;;14.23;2.53;;;;;;;4.66;63.22;99506.06;5023661;28;20049;-75
2021/01/26 00:20:56;;;;;;;11.68;1.77;;;;;;;5.14;61.22;99505.78;5012126;28;20063;-76
2021/01/26 00:23:23;;;;;;;6.93;1.42;;;;;;;4.97;62.46;99511.63;5029925;28;20142;-76
2021/01/26 00:25:49;;;;;;;9.07;1.77;;;;;;;5.09;61.98;99517.81;5001206;28;20144;-76
2021/01/26 00:28:17;;;;;;;3.63;1.40;;;;;;;5.26;61.57;99521.47;5015949;28;20052;-76
2021/01/26 00:30:48;;;;;;;3.55;1.20;;;;;;;5.25;61.82;99513.66;5016709;28;20051;-76
2021/01/26 00:33:19;;;;;;;8.40;1.42;;;;;;;5.27;61.60;99509.38;5020600;28;20675;-77
2021/01/26 00:35:47;;;;;;;7.75;1.45;;;;;;;5.44;61.25;99504.38;4997748;28;21595;-76
2021/01/26 00:38:15;;;;;;;3.47;1.20;;;;;;;5.86;60.18;99520.31;5009236;28;20049;-75
2021/01/26 00:40:44;;;;;;;5.38;1.27;;;;;;;5.80;59.66;99509.91;5013836;28;20057;-76
2021/01/26 00:43:12;;;;;;;6.53;1.30;;;;;;;6.06;59.25;99521.38;5018570;28;20151;-76
2021/01/26 00:45:38;;;;;;;12.30;1.52;;;;;;;5.51;60.45;99521.72;5010284;28;20107;-76
2021/01/26 00:48:05;;;;;;;7.78;1.60;;;;;;;5.70;60.16;99523.63;5018526;28;20050;-76
2021/01/26 00:50:33;;;;;;;7.07;1.70;;;;;;;5.58;60.67;99526.97;5027318;28;20045;-76
2021/01/26 00:52:59;;;;;;;9.13;1.65;;;;;;;5.74;60.55;99525.41;5011275;28;20172;-77
2021/01/26 00:55:27;;;;;;;9.43;1.80;;;;;;;5.38;61.20;99519.84;5010993;28;20045;-77
2021/01/26 00:57:54;;;;;;;6.88;1.52;;;;;;;5.55;60.55;99519.19;5010483;28;20369;-76
2021/01/26 01:00:43;;;;;;;3.58;1.25;;;;;;;5.64;59.98;99523.56;5013885;28;20062;-77
2021/01/26 01:03:11;;;;;;;8.70;1.83;;;;;;;5.45;60.74;99529.44;5015610;28;20103;-76
2021/01/26 01:05:45;;;;;;;6.28;1.27;;;;;;;5.34;61.08;99534.50;5028079;28;20049;-76
2021/01/26 01:08:12;;;;;;;7.97;2.42;;;;;;;5.04;61.70;99529.81;5005018;28;20488;-76
2021/01/26 01:10:38;;;;;;;11.60;1.30;;;;;;;5.24;60.64;99532.66;4989324;28;20060;-76
2021/01/26 01:13:09;;;;;;;9.57;1.90;;;;;;;5.30;60.39;99530.13;4992403;28;20045;-76
2021/01/26 01:15:37;;;;;;;7.90;1.67;;;;;;;5.11;60.72;99534.25;5007727;28;20042;-77
2021/01/26 01:18:23;;;;;;;7.78;1.83;;;;;;;5.30;60.12;99537.91;5034616;28;20060;-77
2021/01/26 01:20:50;;;;;;;7.95;1.65;;;;;;;5.25;59.73;99555.09;5016084;28;20068;-77
2021/01/26 01:23:35;;;;;;;4.13;1.67;;;;;;;5.04;60.36;99553.13;5016274;28;20786;-76
2021/01/26 01:26:01;;;;;;;6.95;1.45;;;;;;;5.16;60.16;99558.47;5017301;28;20069;-77
2021/01/26 01:28:28;;;;;;;4.72;1.58;;;;;;;5.09;60.61;99567.00;5012429;28;20060;-77
2021/01/26 01:30:55;;;;;;;7.00;2.10;;;;;;;4.80;61.42;99565.75;5021403;28;20057;-77
2021/01/26 01:33:24;;;;;;;3.42;1.40;;;;;;;4.94;61.12;99573.72;5017411;28;20069;-77
2021/01/26 01:35:51;;;;;;;6.05;1.60;;;;;;;4.98;61.26;99581.53;5030641;28;20561;-77
2021/01/26 01:38:46;;;;;;;7.10;1.45;;;;;;;4.75;62.02;99577.75;5005627;28;20053;-77
2021/01/26 01:41:16;;;;;;;5.88;1.20;;;;;;;4.74;62.17;99579.50;5016924;28;20042;-77
2021/01/26 01:43:42;;;;;;;5.90;1.30;;;;;;;4.42;63.14;99580.72;5029669;28;20049;-77
2021/01/26 01:46:37;;;;;;;8.40;1.67;;;;;;;4.73;62.27;99579.47;5019066;28;20192;-77
2021/01/26 01:49:10;;;;;;;8.30;1.83;;;;;;;4.82;61.46;99580.47;5014613;28;20121;-77
2021/01/26 01:51:41;;;;;;;7.63;1.13;;;;;;;5.07;60.76;99580.78;5000420;28;20068;-77
2021/01/26 01:54:26;;;;;;;4.13;1.25;;;;;;;5.10;60.37;99575.63;5015294;28;20054;-77
2021/01/26 01:57:02;;;;;;;4.88;1.25;;;;;;;5.27;60.08;99579.31;5015122;28;20519;-77
2021/01/26 01:59:36;;;;;;;3.92;0.80;;;;;;;5.40;59.24;99580.31;5013212;28;20053;-77
2021/01/26 02:02:23;;;;;;;3.10;0.90;;;;;;;5.35;59.45;99576.81;5019559;28;20154;-75
2021/01/26 02:04:50;;;;;;;3.72;0.77;;;;;;;5.38;59.31;99582.00;5005181;28;20155;-75
2021/01/26 02:07:37;;;;;;;4.95;1.30;;;;;;;5.39;59.12;99575.97;4994727;28;20051;-77
2021/01/26 02:10:05;;;;;;;5.80;1.20;;;;;;;5.28;59.47;99588.81;5009468;28;20099;-75
2021/01/26 02:12:31;;;;;;;5.45;1.02;;;;;;;5.25;59.52;99589.66;5016887;28;20049;-76
2021/01/26 02:15:00;;;;;;;7.40;1.52;;;;;;;4.51;62.01;99598.97;5013962;28;20057;-76
2021/01/26 02:17:49;;;;;;;2.95;0.93;;;;;;;4.54;61.85;99608.50;5017318;28;20055;-76
2021/01/26 02:20:54;;;;;;;5.65;1.52;;;;;;;4.36;62.25;99603.94;5018433;28;20042;-76
2021/01/26 02:23:42;;;;;;;4.07;1.20;;;;;;;4.39;62.98;99591.03;5017724;28;20052;-77
2021/01/26 02:26:28;;;;;;;1.80;1.20;;;;;;;4.04;64.13;99595.63;5032715;28;20136;-75
2021/01/26 02:29:05;;;;;;;5.18;1.52;;;;;;;4.34;62.59;99585.78;5015869;28;20041;-76
2021/01/26 02:31:50;;;;;;;4.65;1.25;;;;;;;4.83;61.75;99582.22;5036621;28;20045;-76
2021/01/26 02:34:32;;;;;;;4.57;1.55;;;;;;;4.95;60.84;99593.56;5016617;28;20492;-76
2021/01/26 02:37:13;;;;;;;2.78;1.40;;;;;;;4.75;61.18;99585.50;5012659;28;20107;-76
2021/01/26 02:39:56;;;;;;;6.07;1.17;;;;;;;5.12;60.40;99587.78;4989616;28;20065;-76
2021/01/26 02:43:02;;;;;;;1.90;1.17;;;;;;;5.28;59.43;99589.66;5012058;28;20061;-75
2021/01/26 02:45:49;;;;;;;3.75;1.20;;;;;;;4.86;60.54;99602.06;5008779;28;20076;-76
2021/01/26 02:48:41;;;;;;;4.75;1.40;;;;;;;4.89;60.51;99606.44;5017931;28;20045;-76
2021/01/26 02:51:27;;;;;;;3.58;1.25;;;;;;;5.10;59.84;99609.28;4996426;28;20427;-75
2021/01/26 02:54:17;;;;;;;5.22;1.50;;;;;;;4.99;60.59;99605.72;5012359;28;20185;-76
2021/01/26 02:57:11;;;;;;;5.70;1.50;;;;;;;4.94;60.33;99607.38;4990609;28;20042;-76
2021/01/26 02:59:58;;;;;;;8.10;1.50;;;;;;;5.05;60.17;99609.25;5013955;28;20144;-76
2021/01/26 03:03:05;;;;;;;3.38;1.50;;;;;;;5.11;60.01;99622.28;4998850;28;20201;-76
2021/01/26 03:06:06;;;;;;;6.25;1.70;;;;;;;5.33;59.09;99617.34;5008160;28;20239;-76
2021/01/26 03:09:00;;;;;;;5.90;1.80;;;;;;;5.39;59.08;99620.00;5017466;28;20556;-76
2021/01/26 03:11:38;;;;;;;6.35;1.50;;;;;;;5.19;58.58;99618.06;5024831;28;20593;-76
2021/01/26 03:14:13;;;;;;;6.72;1.77;;;;;;;5.23;59.52;99618.94;5028503;28;20055;-76
2021/01/26 03:16:43;;;;;;;3.67;1.63;;;;;;;5.34;58.78;99625.16;5012197;28;20112;-76
2021/01/26 03:19:31;;;;;;;4.78;1.65;;;;;;;5.42;58.56;99620.91;5012226;28;20057;-76
2021/01/26 03:22:01;;;;;;;4.30;1.63;;;;;;;5.66;57.90;99630.69;4999589;28;20041;-76
2021/01/26 03:24:36;;;;;;;5.63;1.65;;;;;;;5.25;58.88;99628.50;5026899;28;20459;-76
2021/01/26 03:27:27;;;;;;;5.07;1.75;;;;;;;5.41;58.53;99628.69;5012564;28;20086;-76
2021/01/26 03:29:57;;;;;;;5.57;1.90;;;;;;;5.43;58.73;99621.78;5017040;28;20466;-76
2021/01/26 03:32:47;;;;;;;6.97;1.60;;;;;;;5.09;60.11;99616.19;5026033;28;20060;-76
2021/01/26 03:35:16;;;;;;;5.50;1.88;;;;;;;4.48;61.27;99611.88;5014655;28;20141;-76
2021/01/26 03:38:16;;;;;;;7.10;1.95;;;;;;;4.65;61.03;99612.13;5021761;28;20116;-76
2021/01/26 03:41:04;;;;;;;4.90;2.00;;;;;;;4.54;61.37;99608.50;5017846;28;20064;-76
2021/01/26 03:43:31;;;;;;;5.50;2.35;;;;;;;5.07;59.72;99604.09;5013544;28;20056;-76
2021/01/26 03:46:46;;;;;;;5.25;1.88;;;;;;;5.13;59.07;99612.78;5020555;28;20048;-76
2021/01/26 03:50:16;;;;;;;2.40;1.48;;;;;;;5.25;58.98;99620.72;5012991;28;20120;-76
2021/01/26 03:53:21;;;;;;;6.97;2.17;;;;;;;5.51;57.73;99615.00;5009705;28;20052;-76
2021/01/26 03:56:18;;;;;;;6.15;1.60;;;;;;;5.54;57.25;99605.53;5015823;28;20093;-76
2021/01/26 03:59:05;;;;;;;9.15;2.00;;;;;;;5.41;58.02;99608.84;5012422;28;20136;-76
2021/01/26 04:02:07;;;;;;;3.67;1.60;;;;;;;5.30;58.69;99605.25;5016177;28;20184;-76
2021/01/26 04:05:14;;;;;;;5.00;2.08;;;;;;;5.39;58.37;99600.16;5011193;28;20196;-76
2021/01/26 04:08:07;;;;;;;7.55;1.98;;;;;;;5.51;58.16;99595.13;5013992;28;20052;-76
2021/01/26 04:10:39;;;;;;;6.80;2.33;;;;;;;5.52;57.71;99590.81;5015734;28;20053;-76
2021/01/26 04:13:29;;;;;;;6.22;2.30;;;;;;;5.52;57.72;99590.81;5008706;28;20063;-76
2021/01/26 04:16:00;;;;;;;6.55;1.92;;;;;;;5.18;58.53;99600.75;5029547;28;20049;-76
2021/01/26 04:18:48;;;;;;;9.60;2.00;;;;;;;5.13;58.72;99602.44;5013337;28;20056;-76
2021/01/26 04:21:34;;;;;;;8.23;1.50;;;;;;;4.89;59.58;99601.25;5015085;28;20522;-76
2021/01/26 04:24:01;;;;;;;6.88;1.90;;;;;;;4.99;59.10;99603.13;5011930;28;20045;-76
2021/01/26 04:26:32;;;;;;;6.60;2.08;;;;;;;5.16;58.39;99609.38;5015260;28;20567;-76
2021/01/26 04:29:17;;;;;;;9.93;1.92;;;;;;;4.96;58.72;99609.13;5022931;28;20056;-77
2021/01/26 04:32:02;;;;;;;3.40;1.40;;;;;;;5.15;58.17;99612.81;5030094;28;20052;-76
2021/01/26 04:34:29;;;;;;;4.55;1.67;;;;;;;5.43;57.52;99607.13;5008655;28;20056;-77
2021/01/26 04:36:55;;;;;;;6.40;1.85;;;;;;;5.53;57.31;99608.09;5016488;28;20527;-77
2021/01/26 04:39:22;;;;;;;11.07;1.80;;;;;;;5.53;56.73;99605.50;5011955;28;20080;-77
2021/01/26 04:41:57;;;;;;;5.07;1.95;;;;;;;5.68;56.25;99608.25;5013950;28;20045;-76
2021/01/26 04:44:39;;;;;;;4.18;1.48;;;;;;;5.75;55.52;99601.44;5023714;28;20054;-77
2021/01/26 04:47:13;;;;;;;5.10;1.70;;;;;;;5.87;54.70;99606.75;5013654;28;20049;-77
2021/01/26 04:50:11;;;;;;;3.90;1.50;;;;;;;5.79;54.72;99600.59;5022613;28;21837;-77
2021/01/26 04:53:11;;;;;;;5.13;1.90;;;;;;;5.57;55.72;99610.72;5011220;28;20056;-77
2021/01/26 04:56:03;;;;;;;4.47;1.70;;;;;;;5.37;56.87;99606.19;5011520;28;20056;-76
2021/01/26 04:58:57;;;;;;;10.48;1.75;;;;;;;5.41;56.79;99605.38;5014208;28;20824;-76
2021/01/26 05:02:17;;;;;;;4.70;1.42;;;;;;;5.68;56.08;99605.66;5020013;28;20480;-77
2021/01/26 05:05:06;;;;;;;6.60;2.25;;;;;;;5.69;55.79;99607.41;5015208;28;20076;-77
2021/01/26 05:07:59;;;;;;;5.57;1.30;;;;;;;5.60;55.88;99604.72;5016094;28;20045;-76
2021/01/26 05:10:38;;;;;;;5.22;1.65;;;;;;;5.69;55.60;99608.28;5014210;28;20053;-77
2021/01/26 05:13:33;;;;;;;4.70;1.85;;;;;;;5.62;55.76;99608.19;5016311;28;20063;-76
2021/01/26 05:16:39;;;;;;;6.60;2.17;;;;;;;5.19;57.01;99618.06;5009727;28;20114;-77
2021/01/26 05:19:27;;;;;;;4.35;1.60;;;;;;;5.09;57.65;99611.00;5014796;28;20049;-77
2021/01/26 05:22:25;;;;;;;8.95;2.15;;;;;;;5.31;56.97;99613.88;5010341;28;20381;-76
2021/01/26 05:25:14;;;;;;;4.85;1.98;;;;;;;5.38;56.50;99618.28;5015407;28;20064;-76
2021/01/26 05:27:59;;;;;;;3.53;1.80;;;;;;;5.51;56.14;99612.41;5009436;28;20069;-77
2021/01/26 05:30:37;;;;;;;5.45;1.73;;;;;;;5.45;56.79;99609.75;5013869;28;20180;-77
2021/01/26 05:33:12;;;;;;;5.72;1.83;;;;;;;5.54;55.89;99612.44;5012884;28;20050;-77
2021/01/26 05:35:43;;;;;;;3.50;1.60;;;;;;;5.56;55.78;99619.34;5014683;28;20047;-77
2021/01/26 05:38:29;;;;;;;6.80;1.80;;;;;;;5.45;55.54;99612.31;5013161;28;20127;-76
2021/01/26 05:41:03;;;;;;;5.53;1.60;;;;;;;5.24;56.32;99616.38;5010606;28;20416;-77
2021/01/26 05:43:50;;;;;;;6.40;1.80;;;;;;;4.85;57.71;99623.63;5012656;28;20149;-76
2021/01/26 05:46:42;;;;;;;3.72;1.60;;;;;;;4.90;58.03;99628.84;5013032;28;20053;-76
2021/01/26 05:49:37;;;;;;;8.00;1.83;;;;;;;5.34;56.75;99625.16;5012387;28;20052;-76
2021/01/26 05:52:09;;;;;;;6.90;2.17;;;;;;;5.32;56.85;99626.88;5016236;28;20092;-77
2021/01/26 05:54:45;;;;;;;4.85;1.70;;;;;;;5.06;56.78;99623.94;5012363;28;20408;-77
2021/01/26 05:57:33;;;;;;;8.38;1.65;;;;;;;5.18;56.65;99624.06;5013929;28;20060;-77
2021/01/26 06:00:23;;;;;;;6.78;1.70;;;;;;;5.34;55.98;99622.56;5022278;28;20068;-77
2021/01/26 06:03:15;;;;;;;9.82;1.50;;;;;;;5.61;55.32;99616.84;5015112;28;20484;-77
2021/01/26 06:06:10;;;;;;;3.55;1.48;;;;;;;5.60;55.38;99615.97;5031544;28;20203;-75
2021/01/26 06:08:56;;;;;;;3.17;1.20;;;;;;;5.54;54.60;99610.72;4998668;28;20060;-76
2021/01/26 06:11:41;;;;;;;5.72;1.65;;;;;;;5.68;55.01;99613.44;5017665;28;20119;-77
2021/01/26 06:14:25;;;;;;;4.82;1.40;;;;;;;5.68;54.56;99609.13;5016380;28;20052;-76
2021/01/26 06:17:03;;;;;;;5.60;1.70;;;;;;;6.00;53.81;99613.78;5016674;28;20061;-76
2021/01/26 06:19:30;;;;;;;7.53;3.63;;;;;;;5.55;56.05;99604.69;5014982;28;20045;-77
2021/01/26 06:22:24;;;;;;;6.38;1.75;;;;;;;5.32;55.51;99608.72;5018909;28;20053;-77
2021/01/26 06:25:17;;;;;;;8.05;2.40;;;;;;;5.32;55.72;99608.72;5009302;28;20065;-76
2021/01/26 06:28:20;;;;;;;5.32;1.88;;;;;;;5.30;56.23;99604.38;5017602;28;20120;-76
2021/01/26 06:31:23;;;;;;;5.47;2.00;;;;;;;5.49;55.72;99608.91;5030302;28;20142;-76
2021/01/26 06:34:41;;;;;;;5.82;1.75;;;;;;;5.34;56.06;99609.59;5016293;28;20056;-76
2021/01/26 06:37:40;;;;;;;6.07;1.80;;;;;;;5.32;56.45;99618.22;5018092;28;20196;-77
2021/01/26 06:40:52;;;;;;;5.25;1.73;;;;;;;5.57;55.86;99615.91;5015847;28;20095;-77
2021/01/26 06:43:58;;;;;;;9.73;1.95;;;;;;;5.50;56.19;99616.72;5016586;28;20092;-77
2021/01/26 06:46:48;;;;;;;4.35;1.00;;;;;;;5.39;57.00;99620.00;5018100;28;20068;-77
2021/01/26 06:49:36;;;;;;;6.57;1.40;;;;;;;5.41;57.16;99621.78;5014425;28;20060;-77
2021/01/26 06:52:33;;;;;;;5.55;1.30;;;;;;;5.26;58.17;99616.41;5020357;28;20260;-77
2021/01/26 06:55:30;;;;;;;2.80;1.10;;;;;;;5.44;57.11;99602.81;5014418;28;20061;-76
2021/01/26 06:58:16;;;;;;;11.45;1.65;;;;;;;5.58;57.16;99609.00;5020419;28;20049;-76
2021/01/26 07:00:54;;;;;;;6.88;1.77;;;;;;;5.97;56.03;99601.69;5014880;28;20053;-76
2021/01/26 07:04:17;;;;;;;10.75;2.92;;;;;;;5.18;58.57;99600.75;5032837;28;20163;-76
2021/01/26 07:07:28;;;;;;;7.85;2.75;;;;;;;5.13;59.37;99611.94;5009965;28;20056;-76
2021/01/26 07:10:39;;;;;;;13.95;3.63;;;;;;;5.46;58.36;99608.88;5017558;28;20101;-76
2021/01/26 07:13:24;;;;;;;5.22;2.70;;;;;;;5.56;57.98;99609.00;5020423;28;20388;-76
2021/01/26 07:16:31;;;;;;;5.00;1.98;;;;;;;5.28;58.89;99615.56;5012476;28;20073;-76
2021/01/26 07:19:41;;;;;;;6.78;1.70;;;;;;;5.19;59.62;99607.69;5020056;28;20068;-76
2021/01/26 07:22:43;;;;;;;11.35;2.22;;;;;;;5.04;60.17;99598.84;5021340;28;20049;-76
2021/01/26 07:25:59;;;;;;;7.03;1.92;;;;;;;5.14;59.79;99595.53;5016668;28;20183;-76
2021/01/26 07:28:53;;;;;;;6.07;2.28;;;;;;;5.17;59.83;99595.59;5017595;28;20060;-76
2021/01/26 07:31:49;;;;;;;6.97;2.25;;;;;;;4.92;60.73;99594.41;5023835;28;20072;-75
2021/01/26 07:34:25;;;;;;;7.13;2.45;;;;;;;5.14;60.39;99617.13;5020920;28;20091;-74
2021/01/26 07:37:17;;;;;;;5.97;2.60;;;;;;;5.14;59.90;99618.84;5012842;28;20048;-75
2021/01/26 07:40:11;;;;;;;;;;;;;;;5.57;59.17;99602.09;5019014;28;20056;-75
2021/01/26 07:43:22;;;;;;;4.72;2.55;;;;;;;5.52;59.11;99608.94;5010766;28;20051;-76
2021/01/26 07:46:10;;;;;;;15.95;3.25;;;;;;;5.86;58.48;99611.03;5011367;28;20065;-77
2021/01/26 07:48:46;;;;;;;6.57;3.22;;;;;;;5.86;58.07;99621.41;5007632;28;20147;-77
2021/01/26 07:51:37;;;;;;;7.10;3.20;;;;;;;5.98;58.04;99619.00;5026494;28;20064;-76
2021/01/26 07:54:15;;;;;;;6.63;3.13;;;;;;;5.84;58.14;99617.94;5014461;28;20064;-76
2021/01/26 07:57:03;;;;;;;8.10;3.45;;;;;;;5.57;58.97;99613.31;5016563;28;20127;-76
2021/01/26 07:59:53;;;;;;;7.95;3.72;;;;;;;5.75;58.45;99607.50;5009176;28;20148;-75
2021/01/26 08:02:29;;;;;;;11.25;4.20;;;;;;;5.74;58.57;99610.94;4996166;28;20053;-74
2021/01/26 08:05:17;;;;;;;11.38;3.95;;;;;;;5.34;60.18;99608.72;5025990;28;20060;-75
2021/01/26 08:08:05;;;;;;;7.32;3.45;;;;;;;5.47;59.60;99613.19;5010300;28;20127;-75
2021/01/26 08:11:21;;;;;;;8.75;3.10;;;;;;;5.64;59.16;99615.16;5015797;28;20385;-75
2021/01/26 08:13:52;;;;;;;9.93;3.38;;;;;;;5.88;58.81;99616.28;4994266;28;20094;-75
2021/01/26 08:16:28;;;;;;;10.60;3.50;;;;;;;6.11;58.18;99620.84;5017305;28;20042;-74
2021/01/26 08:18:57;;;;;;;10.85;4.65;;;;;;;5.70;60.50;99623.00;5007676;28;20136;-75
2021/01/26 08:21:46;;;;;;;22.80;8.27;;;;;;;5.54;61.93;99623.66;5028774;28;20088;-75
2021/01/26 08:24:15;;;;;;;32.78;14.10;;;;;;;5.60;62.14;99628.94;5014892;28;20049;-76
2021/01/26 08:26:42;;;;;;;41.03;17.77;;;;;;;5.62;62.70;99632.38;5013450;28;20049;-77
2021/01/26 08:29:09;;;;;;;39.70;13.82;;;;;;;5.90;62.02;99643.94;5001787;28;20068;-75
2021/01/26 08:31:39;;;;;;;27.25;10.05;;;;;;;6.23;61.26;99642.56;5013637;28;20056;-76
2021/01/26 08:34:21;;;;;;;20.25;8.60;;;;;;;6.09;61.21;99640.69;5002707;28;20045;-76
2021/01/26 08:37:11;;;;;;;13.65;6.53;;;;;;;6.21;61.02;99624.38;5017911;28;20103;-76
2021/01/26 08:39:40;;;;;;;11.55;5.43;;;;;;;6.75;59.67;99605.78;4994547;28;20045;-76
2021/01/26 08:42:09;;;;;;;11.68;4.32;;;;;;;6.64;59.92;99620.41;5019969;28;20049;-76
2021/01/26 08:44:35;;;;;;;9.18;3.90;;;;;;;6.65;59.46;99610.88;5013194;28;20494;-76
2021/01/26 08:47:39;;;;;;;13.75;3.70;;;;;;;7.12;58.42;99605.97;4998876;28;20231;-75
2021/01/26 08:50:33;;;;;;;7.20;3.38;;;;;;;7.33;57.55;99601.75;5010583;28;20508;-76
2021/01/26 08:53:19;;;;;;;13.60;3.33;;;;;;;7.24;57.49;99596.50;5015218;28;20104;-76
2021/01/26 08:55:48;;;;;;;7.60;4.13;;;;;;;7.07;58.20;99602.47;5010505;28;20492;-75
2021/01/26 08:58:41;;;;;;;9.95;5.20;;;;;;;7.29;57.76;99609.53;5018922;28;20060;-77
2021/01/26 09:01:10;;;;;;;12.20;5.75;;;;;;;7.26;57.80;99601.72;5009236;28;20053;-76
2021/01/26 09:03:42;;;;;;;13.98;6.25;;;;;;;7.25;57.71;99599.97;4994475;28;20428;-77
2021/01/26 09:06:39;;;;;;;12.25;4.32;;;;;;;7.47;57.01;99598.34;5020748;28;20163;-77
2021/01/26 09:09:07;;;;;;;6.60;3.08;;;;;;;7.32;57.20;99592.22;5025954;28;20068;-75
2021/01/26 09:11:51;;;;;;;5.57;2.25;;;;;;;6.84;58.26;99595.44;5023355;28;20057;-73
2021/01/26 09:14:27;;;;;;;9.60;2.42;;;;;;;7.26;57.11;99601.72;5015713;28;20058;-76
2021/01/26 09:17:23;;;;;;;7.97;2.38;;;;;;;6.91;58.28;99601.53;5000697;28;20049;-76
2021/01/26 09:20:15;;;;;;;6.38;1.92;;;;;;;6.99;58.57;99612.84;5021010;28;20607;-75
2021/01/26 09:22:42;;;;;;;10.83;3.20;;;;;;;7.45;56.68;99614.78;5024915;28;20479;-75
2021/01/26 09:25:23;;;;;;;9.40;3.53;;;;;;;7.23;57.36;99607.78;4993843;28;20058;-77
2021/01/26 09:28:03;;;;;;;9.48;3.33;;;;;;;7.34;57.19;99592.19;4989530;28;20050;-76
2021/01/26 09:30:32;;;;;;;9.85;2.88;;;;;;;7.20;57.18;99579.16;5010156;28;20045;-76
2021/01/26 09:33:12;;;;;;;6.80;2.20;;;;;;;7.28;57.03;99561.88;5029393;28;20041;-76
2021/01/26 09:35:49;;;;;;;8.57;2.55;;;;;;;7.48;56.77;99563.69;5016038;28;20510;-76
2021/01/26 09:38:20;;;;;;;12.35;2.53;;;;;;;7.34;56.45;99561.00;5016161;28;20476;-77
2021/01/26 09:41:07;;;;;;;5.80;2.03;;;;;;;7.41;56.74;99562.78;5034104;28;20049;-77
2021/01/26 09:43:37;;;;;;;7.50;2.00;;;;;;;7.18;57.20;99564.44;5013997;28;20144;-76
2021/01/26 09:46:06;;;;;;;7.50;1.85;;;;;;;7.25;57.26;99571.38;5004777;28;20170;-74
2021/01/26 09:48:38;;;;;;;7.07;1.85;;;;;;;7.36;56.85;99569.69;4991213;28;20053;-75
2021/01/26 09:51:26;;;;;;;7.78;1.80;;;;;;;7.37;56.88;99576.63;5018299;28;20145;-74
2021/01/26 09:54:05;;;;;;;6.65;2.60;;;;;;;7.47;56.67;99561.94;5013060;28;20129;-75
2021/01/26 09:56:34;;;;;;;4.82;1.95;;;;;;;6.89;58.11;99562.59;5001962;28;20497;-76
2021/01/26 09:59:03;;;;;;;4.50;1.77;;;;;;;7.53;56.44;99581.00;5014769;28;20060;-76
2021/01/26 10:01:32;;;;;;;8.52;2.10;;;;;;;7.48;56.34;99580.16;5018124;28;20048;-75
2021/01/26 10:04:05;;;;;;;8.82;2.10;;;;;;;7.49;56.36;99570.59;5013952;28;20054;-75
2021/01/26 10:06:33;;;;;;;3.67;1.80;;;;;;;7.16;57.31;99573.94;4998577;28;20053;-75
2021/01/26 10:09:18;;;;;;;4.80;1.55;;;;;;;7.65;56.02;99557.66;5014750;28;20500;-75
2021/01/26 10:11:44;;;;;;;4.38;2.45;;;;;;;7.88;55.37;99537.75;5021054;28;20111;-77
2021/01/26 10:14:21;;;;;;;8.40;2.10;;;;;;;7.44;56.36;99529.00;5014295;28;20053;-77
2021/01/26 10:17:00;;;;;;;5.68;1.67;;;;;;;7.59;56.16;99520.38;5018359;28;20123;-76
2021/01/26 10:19:30;;;;;;;8.65;2.35;;;;;;;7.81;55.48;99532.56;5016637;28;20068;-76
2021/01/26 10:22:10;;;;;;;5.40;2.10;;;;;;;7.64;56.54;99529.91;5016182;28;20065;-75
2021/01/26 10:24:38;;;;;;;6.43;1.92;;;;;;;7.78;55.92;99536.00;5008837;28;20658;-76
2021/01/26 10:27:13;;;;;;;5.10;1.98;;;;;;;7.17;57.96;99532.41;5015605;28;20049;-76
2021/01/26 10:29:45;;;;;;;5.60;2.03;;;;;;;7.60;56.88;99530.78;4998285;28;20056;-76
2021/01/26 10:32:32;;;;;;;8.98;1.75;;;;;;;7.60;56.54;99520.38;5001537;28;20096;-76
2021/01/26 10:34:59;;;;;;;4.45;1.58;;;;;;;7.89;56.14;99517.81;5010180;28;20485;-76
2021/01/26 10:37:29;;;;;;;2.97;1.63;;;;;;;7.97;55.62;99505.66;5017659;28;20057;-76
2021/01/26 10:40:30;;;;;;;6.38;2.55;;;;;;;7.90;55.80;99498.75;5017056;28;20045;-75
2021/01/26 10:43:01;;;;;;;7.53;3.38;;;;;;;7.88;55.51;99496.13;5009696;28;20054;-75
2021/01/26 10:45:41;;;;;;;6.80;3.00;;;;;;;8.23;54.35;99490.03;5011956;28;21684;-75
2021/01/26 10:48:36;;;;;;;6.07;2.00;;;;;;;8.22;54.12;99509.13;5021611;28;20052;-75
2021/01/26 10:51:35;;;;;;;5.93;1.95;;;;;;;8.30;53.94;99510.88;5012095;28;20056;-75
2021/01/26 10:54:06;;;;;;;2.92;1.40;;;;;;;8.77;52.48;99511.66;5013088;28;20045;-75
2021/01/26 10:56:32;;;;;;;3.83;1.60;;;;;;;8.47;53.46;99517.81;5014459;28;20080;-75
2021/01/26 10:58:59;;;;;;;2.42;1.38;;;;;;;8.65;53.19;99510.81;5021486;28;20439;-77
2021/01/26 11:01:26;;;;;;;5.20;2.42;;;;;;;8.55;53.62;99501.28;5015094;28;20093;-75
2021/01/26 11:03:53;;;;;;;3.22;1.70;;;;;;;8.40;53.99;99509.13;5016878;28;20103;-76
2021/01/26 11:06:24;;;;;;;2.92;1.80;;;;;;;8.69;53.49;99506.47;5010021;28;20045;-75
2021/01/26 11:08:52;;;;;;;2.33;1.50;;;;;;;8.33;54.69;99504.81;5028693;28;20050;-74
2021/01/26 11:11:23;;;;;;;3.80;2.13;;;;;;;8.49;54.13;99509.09;5023171;28;20514;-75
2021/01/26 11:13:51;;;;;;;4.38;1.90;;;;;;;8.57;53.93;99511.72;5014536;28;20606;-74
2021/01/26 11:16:17;;;;;;;5.05;2.15;;;;;;;8.48;54.37;99522.16;5012838;28;20140;-76
2021/01/26 11:18:45;;;;;;;5.95;3.15;;;;;;;8.77;53.51;99527.28;5015450;28;20123;-76
2021/01/26 11:21:16;;;;;;;4.82;1.95;;;;;;;8.51;54.57;99537.75;5027101;28;20094;-75
2021/01/26 11:23:43;;;;;;;7.03;2.05;;;;;;;8.60;53.99;99541.19;5030948;28;20068;-75
2021/01/26 11:26:14;;;;;;;5.53;2.20;;;;;;;8.88;53.15;99546.34;5016167;28;20053;-75
2021/01/26 11:28:40;;;;;;;5.15;2.50;;;;;;;8.39;55.04;99538.66;5012822;28;20052;-74
2021/01/26 11:31:07;;;;;;;4.30;2.22;;;;;;;9.05;53.29;99536.75;5025668;28;20049;-75
2021/01/26 11:33:35;;;;;;;7.40;2.25;;;;;;;9.03;53.33;99538.47;4990817;28;20199;-75
2021/01/26 11:36:05;;;;;;;9.32;2.25;;;;;;;8.05;55.59;99534.28;4995378;28;20623;-75
2021/01/26 11:38:32;;;;;;;7.10;2.65;;;;;;;8.59;54.35;99534.25;4981935;28;20050;-75
2021/01/26 11:41:02;;;;;;;4.53;2.70;;;;;;;8.45;55.06;99529.94;4979605;28;20046;-74
2021/01/26 11:43:33;;;;;;;6.07;3.22;;;;;;;8.53;54.81;99521.28;4988577;28;20073;-74
2021/01/26 11:46:01;;;;;;;9.30;3.00;;;;;;;8.04;56.19;99516.94;4977952;28;20069;-74
2021/01/26 11:48:29;;;;;;;3.50;2.50;;;;;;;8.38;55.50;99508.28;4971939;28;20081;-73
2021/01/26 11:50:57;;;;;;;5.78;2.35;;;;;;;8.37;55.69;99505.66;4981455;28;20137;-74
2021/01/26 11:53:23;;;;;;;10.18;2.85;;;;;;;8.38;55.61;99510.00;4978804;28;20425;-75
2021/01/26 11:55:50;;;;;;;5.88;2.75;;;;;;;8.41;55.33;99503.06;4989489;28;20216;-73
2021/01/26 11:58:18;;;;;;;10.68;2.70;;;;;;;8.06;55.47;99497.84;4984385;28;20528;-77
2021/01/26 12:00:44;;;;;;;8.77;2.53;;;;;;;8.54;54.82;99499.56;4975918;28;20236;-74
2021/01/26 12:03:11;;;;;;;7.70;2.53;;;;;;;8.15;55.59;99497.84;4971068;28;20146;-75
2021/01/26 12:05:39;;;;;;;8.15;2.88;;;;;;;8.34;54.65;99496.16;5016640;28;20053;-75
2021/01/26 12:08:07;;;;;;;8.98;2.55;;;;;;;7.78;56.21;99501.31;5012252;28;20053;-75
2021/01/26 12:10:35;;;;;;;4.18;2.25;;;;;;;7.69;56.77;99497.00;5014387;28;20061;-76
2021/01/26 12:13:05;;;;;;;9.73;4.25;;;;;;;7.68;57.63;99487.44;5028902;28;20586;-76
2021/01/26 12:15:35;;;;;;;9.63;3.58;;;;;;;7.31;57.77;99483.94;5013962;28;20049;-77
2021/01/26 12:18:04;;;;;;;;;;;;;;;7.37;57.96;99489.16;5017149;28;20064;-77
2021/01/26 12:20:31;;;;;;;12.52;3.63;;;;;;;7.93;56.82;99483.13;5007465;28;20737;-78
2021/01/26 12:22:59;;;;;;;7.88;3.58;;;;;;;7.25;58.37;99477.84;5033414;28;20041;-78
2021/01/26 12:25:28;;;;;;;9.13;3.83;;;;;;;8.08;56.36;99475.31;5012501;28;20143;-76
2021/01/26 12:27:55;;;;;;;10.52;4.40;;;;;;;8.28;56.00;99470.09;5019138;28;20408;-75
2021/01/26 12:30:24;;;;;;;6.78;3.47;;;;;;;8.05;56.38;99456.25;5016709;28;20155;-75
2021/01/26 12:32:51;;;;;;;8.00;4.32;;;;;;;8.21;56.28;99474.44;5012680;28;20045;-75
2021/01/26 12:35:19;;;;;;;7.97;3.60;;;;;;;7.84;57.54;99471.00;5013919;28;20045;-76
2021/01/26 12:37:46;;;;;;;10.02;4.07;;;;;;;7.62;57.56;99473.59;5016220;28;20408;-75
2021/01/26 12:40:13;;;;;;;10.85;4.40;;;;;;;7.68;58.36;99465.78;5013456;28;20054;-74
2021/01/26 12:42:41;;;;;;;9.60;4.38;;;;;;;7.79;58.10;99467.53;5018207;28;20476;-76